Latest Weather Observations for Bellambi

IDN60801

Issued at 3:52 pm EDT Saturday 31 October 2020 (issued every 10 minutes, with the page automatically refreshed every 10 minutes)

About weather observations | Map of weather stations | Latest weather observations for NSW | Other Formats
Station Details ID: 068228 Name: BELLAMBI AWS Lat: -34.37 Lon: 150.93 Height: 10.0 m
Data from the previous 72 hours. | See also: Recent months at Bellambi
Date/Time
EDT
Temp
°C
App
Temp
°C
Dew
Point
°C
Rel
Hum
%
Delta-T
°C
Wind Press
QNH
hPa
Press
MSL
hPa
Rain since
9am
mm
Dir  Spd
km/h
Gust
km/h
Spd
kts
Gust
kts
31/03:30pm 18.6 15.4 14.3 76 2.5 SSW 24 32 13 17 - - 2.8
31/03:00pm 17.0 14.9 14.6 86 1.4 SW 19 24 10 13 - - 2.8
31/02:30pm 16.6 13.7 14.1 85 1.4 SW 22 32 12 17 - - 2.8
31/02:00pm 16.7 12.8 14.5 87 1.3 S 28 35 15 19 - - 2.8
31/01:30pm 17.3 13.3 14.0 81 1.9 S 28 35 15 19 - - 2.4
31/01:00pm 18.1 14.5 14.2 78 2.2 SSE 26 35 14 19 - - 2.2
31/12:30pm 18.4 15.2 14.3 77 2.4 SSE 24 30 13 16 - - 2.2
31/12:00pm 18.1 15.9 15.0 82 1.8 SSE 20 28 11 15 - - 2.2
31/11:30am 17.3 17.4 15.6 90 1.0 NE 9 15 5 8 - - 2.2
31/11:00am 16.1 16.2 14.5 90 0.9 ENE 7 13 4 7 - - 2.2
31/10:30am 16.1 12.8 13.9 87 1.2 ENE 24 28 13 15 - - 1.8
31/10:00am 15.9 12.1 13.7 87 1.2 ENE 26 35 14 19 - - 1.8
31/09:43am 16.5 11.5 14.0 85 1.4 ENE 33 44 18 24 - - 0.2
31/09:34am 17.5 12.2 15.3 87 1.3 ENE 37 56 20 30 - - 0.2
31/09:30am 17.7 11.3 15.5 87 1.3 ENE 43 56 23 30 - - 0.2
31/09:15am 18.3 11.4 16.6 90 1.0 E 48 59 26 32 - - 0.0
31/09:00am 18.4 12.6 16.9 91 0.9 E 43 50 23 27 - - 4.4
31/08:30am 18.4 12.5 16.7 90 1.0 E 43 57 23 31 - - 2.0
31/08:00am 18.5 11.6 16.5 88 1.2 E 48 61 26 33 - - 1.6
31/07:51am 18.5 12.3 16.5 88 1.2 E 44 61 24 33 - - 1.6
31/07:30am 18.6 14.6 16.6 88 1.2 E 33 41 18 22 - - 0.4
31/07:00am 18.7 14.7 16.1 85 1.5 E 32 35 17 19 - - 0.0
31/06:30am 18.7 15.0 15.9 84 1.7 E 30 35 16 19 - - 0.0
31/06:00am 18.7 16.3 16.3 86 1.4 E 24 28 13 15 - - 0.0
31/05:30am 18.7 16.6 16.1 85 1.5 E 22 28 12 15 - - 0.0
31/05:00am 18.6 16.4 16.0 85 1.5 E 22 26 12 14 - - 0.0
31/04:30am 18.4 16.1 15.8 85 1.5 E 22 24 12 13 - - 0.0
31/04:00am 18.4 16.1 15.8 85 1.5 E 22 26 12 14 - - 0.0
31/03:49am 18.2 16.2 15.6 85 1.5 E 20 26 11 14 - - 0.0
31/03:30am 17.0 15.1 15.3 90 1.0 SSW 19 28 10 15 - - 0.0
31/03:00am 16.7 16.6 14.9 89 1.0 SW 9 17 5 9 - - 0.0
31/02:51am 16.6 16.8 14.8 89 1.0 SW 7 13 4 7 - - 0.0
31/02:30am 16.5 15.5 14.7 89 1.0 SW 13 17 7 9 - - 0.0
31/02:00am 16.3 14.9 14.5 89 1.0 SW 15 19 8 10 - - 0.0
31/01:30am 16.2 15.1 14.2 88 1.1 SW 13 17 7 9 - - 0.0
31/01:00am 16.6 16.0 14.6 88 1.1 SW 11 13 6 7 - - 0.0
31/12:30am 16.9 15.2 14.7 87 1.3 S 17 20 9 11 - - 0.0
31/12:00am 16.8 16.5 14.4 86 1.4 WSW 9 13 5 7 - - 0.0
 
Date/Time
EDT
Temp
°C
App
Temp
°C
Dew
Point
°C
Rel
Hum
%
Delta-T
°C
Wind Press
QNH
hPa
Press
MSL
hPa
Rain since
9am
mm
Dir  Spd
km/h
Gust
km/h
Spd
kts
Gust
kts
30/11:30pm 16.7 16.3 14.2 85 1.4 SSW 9 11 5 6 - - 0.0
30/11:00pm 17.0 18.3 14.1 83 1.7 CALM 0 6 0 3 - - 0.0
30/10:30pm 17.4 17.4 14.1 81 1.9 ESE 7 11 4 6 - - 0.0
30/10:00pm 17.3 16.9 14.2 82 1.8 SE 9 13 5 7 - - 0.0
30/09:30pm 17.4 16.2 14.1 81 1.9 SE 13 17 7 9 - - 0.0
30/09:00pm 17.3 16.6 14.4 83 1.7 ESE 11 13 6 7 - - 0.0
30/08:30pm 17.5 16.8 14.2 81 1.9 E 11 15 6 8 - - 0.0
30/08:00pm 17.6 17.3 14.3 81 1.9 E 9 11 5 6 - - 0.0
30/07:30pm 17.8 17.5 14.3 80 2.0 SSE 9 11 5 6 - - 0.0
30/07:00pm 17.9 16.1 14.4 80 2.0 SSE 17 24 9 13 - - 0.0
30/06:30pm 18.2 16.7 14.3 78 2.2 SSE 15 19 8 10 - - 0.0
30/06:00pm 18.5 16.5 14.0 75 2.6 SSE 17 19 9 10 - - 0.0
30/05:30pm 18.7 17.2 14.2 75 2.6 SSE 15 17 8 9 - - 0.0
30/05:00pm 18.5 16.7 14.4 77 2.4 SSE 17 20 9 11 - - 0.0
30/04:30pm 18.6 17.8 14.1 75 2.6 SE 11 15 6 8 - - 0.0
30/04:00pm 18.7 17.8 13.8 73 2.8 SE 11 15 6 8 - - 0.0
30/03:30pm 19.1 18.3 14.1 73 2.9 ESE 11 13 6 7 - - 0.0
30/03:00pm 19.3 18.6 14.3 73 2.9 ESE 11 15 6 8 - - 0.0
30/02:30pm 19.6 18.5 14.2 71 3.1 SE 13 15 7 8 - - 0.0
30/02:00pm 19.9 19.1 15.1 74 2.8 SE 13 15 7 8 - - 0.0
30/01:30pm 19.9 19.2 15.5 76 2.6 SE 13 17 7 9 - - 0.0
30/01:00pm 19.7 17.9 14.5 72 3.0 SE 17 19 9 10 - - 0.0
30/12:30pm 19.0 17.9 13.2 69 3.3 SE 11 13 6 7 - - 0.0
30/12:00pm 19.6 18.9 14.2 71 3.1 SE 11 13 6 7 - - 0.0
30/11:30am 19.4 17.4 13.8 70 3.2 SE 17 19 9 10 - - 0.0
30/11:00am 19.2 17.1 13.6 70 3.2 SE 17 20 9 11 - - 0.0
30/10:30am 19.5 18.1 13.4 68 3.5 SE 13 17 7 9 - - 0.0
30/10:00am 19.2 17.6 12.7 66 3.6 SE 13 17 7 9 - - 0.0
30/09:30am 19.0 17.0 12.7 67 3.5 SE 15 20 8 11 - - 0.0
30/09:00am 18.8 17.9 12.5 67 3.5 S 9 13 5 7 - - 0.0
30/08:30am 18.2 16.4 12.2 68 3.3 SSW 13 15 7 8 - - 0.0
30/08:00am 17.5 16.3 12.8 74 2.6 SSW 11 15 6 8 - - 0.0
30/07:30am 16.4 15.6 12.8 79 2.0 SSW 9 11 5 6 - - 0.0
30/07:00am 15.0 13.6 12.1 83 1.6 WSW 11 11 6 6 - - 0.0
30/06:30am 13.8 12.2 11.5 86 1.2 W 11 13 6 7 - - 0.0
30/06:00am 13.3 12.0 11.4 88 1.0 WSW 9 11 5 6 - - 0.0
30/05:30am 12.6 11.3 11.2 91 0.7 WSW 9 11 5 6 - - 0.0
30/05:00am 12.6 10.9 11.2 91 0.7 WSW 11 13 6 7 - - 0.0
30/04:30am 12.7 11.0 11.1 90 0.8 W 11 13 6 7 - - 0.0
30/04:00am 13.2 12.5 11.3 88 1.0 WSW 6 7 3 4 - - 0.0
30/03:30am 13.2 12.3 11.3 88 1.0 WSW 7 9 4 5 - - 0.0
30/03:00am 13.3 12.0 11.4 88 1.0 WSW 9 9 5 5 - - 0.0
30/02:30am 13.4 11.8 11.5 88 1.0 WSW 11 13 6 7 - - 0.0
30/02:00am 13.4 13.8 11.1 86 1.2 CALM 0 0 0 0 - - 0.0
30/01:30am 13.5 13.8 11.0 85 1.3 CALM 0 6 0 3 - - 0.0
30/01:00am 13.9 13.2 11.4 85 1.3 SSW 6 9 3 5 - - 0.0
30/12:30am 14.2 12.9 11.4 83 1.5 SSW 9 11 5 6 - - 0.0
30/12:00am 14.5 13.2 11.3 81 1.7 WNW 9 11 5 6 - - 0.0
 
Date/Time
EDT
Temp
°C
App
Temp
°C
Dew
Point
°C
Rel
Hum
%
Delta-T
°C
Wind Press
QNH
hPa
Press
MSL
hPa
Rain since
9am
mm
Dir  Spd
km/h
Gust
km/h
Spd
kts
Gust
kts
29/11:30pm 14.8 12.8 11.6 81 1.7 WSW 13 17 7 9 - - 0.0
29/11:00pm 15.2 13.3 11.8 80 1.8 WNW 13 17 7 9 - - 0.0
29/10:30pm 15.3 12.7 11.9 80 1.8 WNW 17 24 9 13 - - 0.0
29/10:00pm 14.8 13.0 12.1 84 1.5 NW 13 17 7 9 - - 0.0
29/09:30pm 14.6 15.2 11.9 84 1.5 CALM 0 0 0 0 - - 0.0
29/09:00pm 14.9 14.4 12.6 86 1.3 WNW 7 7 4 4 - - 0.0
29/08:30pm 15.0 14.1 12.5 85 1.4 W 9 11 5 6 - - 0.0
29/08:00pm 15.4 16.0 12.0 80 1.8 CALM 0 0 0 0 - - 0.0
29/07:30pm 16.0 16.6 12.0 77 2.2 CALM 0 0 0 0 - - 0.0
29/07:00pm 16.6 17.2 12.0 74 2.5 CALM 0 0 0 0 - - 0.0
29/06:30pm 17.1 17.0 12.2 73 2.7 E 4 7 2 4 - - 0.0
29/06:00pm 17.4 16.9 12.5 73 2.7 E 7 9 4 5 - - 0.0
29/05:30pm 17.6 16.9 13.1 75 2.5 ENE 9 11 5 6 - - 0.0
29/05:00pm 17.7 17.0 13.2 75 2.5 E 9 13 5 7 - - 0.0
29/04:30pm 18.1 17.7 14.0 77 2.3 ESE 9 11 5 6 - - 0.0
29/04:00pm 18.0 16.8 13.9 77 2.3 ESE 13 15 7 8 - - 0.0
29/03:30pm 18.0 17.3 13.1 73 2.8 ESE 9 11 5 6 - - 0.0
29/03:00pm 18.5 17.8 14.2 76 2.5 SE 11 13 6 7 - - 0.0
29/02:30pm 17.9 16.0 14.2 79 2.1 SE 17 20 9 11 - - 0.0
29/02:00pm 18.0 16.7 14.7 81 1.9 SSE 15 19 8 10 - - 0.0
29/01:30pm 17.4 15.1 14.1 81 1.9 S 19 20 10 11 - - 0.0
29/01:00pm 17.3 15.7 14.0 81 1.9 S 15 19 8 10 - - 0.0
29/12:30pm 17.0 14.6 13.7 81 1.9 S 19 22 10 12 - - 0.0
29/12:00pm 17.0 14.4 13.9 82 1.8 S 20 26 11 14 - - 0.0
29/11:30am 16.8 15.1 13.7 82 1.8 SSE 15 24 8 13 - - 0.0
29/11:00am 17.1 15.8 13.8 81 1.9 SSE 13 17 7 9 - - 0.0
29/10:30am 17.2 16.5 14.3 83 1.7 SSW 11 17 6 9 - - 0.0
29/10:00am 16.4 15.3 14.2 87 1.3 SW 13 17 7 9 - - 0.0
29/09:30am 15.7 14.9 13.9 89 1.0 SW 11 17 6 9 - - 0.0
29/09:00am 15.5 13.6 14.2 92 0.7 SW 17 20 9 11 - - 13.6
29/08:30am 14.4 12.1 13.0 91 0.8 SW 17 20 9 11 - - 12.8
29/08:00am 14.3 13.1 12.9 91 0.8 SW 11 15 6 8 - - 11.4
29/07:30am 14.3 13.5 12.9 91 0.8 SW 9 13 5 7 - - 11.0
29/07:00am 14.2 13.4 12.9 92 0.7 WSW 9 13 5 7 - - 10.8
29/06:30am 14.4 12.5 13.0 91 0.8 SW 15 20 8 11 - - 10.0
29/06:00am 14.4 13.3 13.0 91 0.8 SW 11 15 6 8 - - 8.4
29/05:30am 14.4 13.3 13.0 91 0.8 SW 11 15 6 8 - - 7.0
29/05:00am 14.4 12.4 12.8 90 0.9 SW 15 19 8 10 - - 5.6
29/04:30am 14.3 13.1 12.9 91 0.8 WSW 11 17 6 9 - - 4.6
29/04:00am 14.5 12.6 13.0 91 0.8 SW 15 19 8 10 - - 4.6
29/03:30am 14.6 12.3 13.0 90 0.9 SW 17 19 9 10 - - 2.4
29/03:00am 15.1 13.6 13.1 88 1.1 SW 13 17 7 9 - - 1.0
29/02:30am 15.3 13.6 12.4 83 1.6 SW 13 15 7 8 - - 0.0
29/02:00am 15.3 13.8 13.0 86 1.3 SW 13 20 7 11 - - 0.0
29/01:30am 15.7 14.3 13.4 86 1.3 SSW 13 19 7 10 - - 0.0
29/01:00am 15.3 14.8 12.6 84 1.5 WSW 7 11 4 6 - - 0.0
29/12:30am 15.2 14.0 12.9 86 1.3 SW 11 13 6 7 - - 0.0
29/12:00am 15.1 14.0 13.0 87 1.2 SW 11 15 6 8 - - 0.0
 
Date/Time
EDT
Temp
°C
App
Temp
°C
Dew
Point
°C
Rel
Hum
%
Delta-T
°C
Wind Press
QNH
hPa
Press
MSL
hPa
Rain since
9am
mm
Dir  Spd
km/h
Gust
km/h
Spd
kts
Gust
kts
28/11:30pm 15.2 13.7 13.2 88 1.1 SW 13 17 7 9 - - 0.0
28/11:00pm 14.9 14.0 12.6 86 1.3 SW 9 9 5 5 - - 0.0
28/10:30pm 15.3 14.5 12.8 85 1.4 WSW 9 11 5 6 - - 0.0
28/10:00pm 15.7 15.2 12.8 83 1.6 WSW 7 11 4 6 - - 0.0
28/09:30pm 16.5 15.7 13.0 80 1.9 S 9 11 5 6 - - 0.0
28/09:00pm 16.6 16.4 13.5 82 1.7 SSE 7 9 4 5 - - 0.0
28/08:30pm 16.4 16.0 13.1 81 1.8 ESE 7 11 4 6 - - 0.0
28/08:00pm 16.7 15.3 13.4 81 1.9 SE 13 15 7 8 - - 0.0
28/07:30pm 16.8 14.8 12.7 77 2.3 SSE 15 17 8 9 - - 0.0
28/07:00pm 17.0 14.7 13.1 78 2.2 SSE 17 20 9 11 - - 0.0
28/06:30pm 17.2 14.9 13.1 77 2.3 SSE 17 20 9 11 - - 0.0
28/06:00pm 17.7 15.1 13.2 75 2.5 SSE 19 20 10 11 - - 0.0
28/05:30pm 17.5 14.8 12.8 74 2.6 SSE 19 22 10 12 - - 0.0
28/05:00pm 17.7 15.2 13.4 76 2.4 SSE 19 22 10 12 - - 0.0
28/04:30pm 17.7 15.1 13.2 75 2.5 SSE 19 22 10 12 - - 0.0
28/04:00pm 18.4 15.8 13.3 72 2.9 SSE 19 24 10 13 - - 0.0

Other formats

Comma delimited format used in spreadsheet applications
http://www.bom.gov.au/fwo/IDN60801/IDN60801.94749.axf

JavaScript Object Notation format (JSON) in row-major order
http://www.bom.gov.au/fwo/IDN60801/IDN60801.94749.json

Data quality

Most of these data are generated automatically and are frequently updated. Quality checks on data are not normally performed. It is possible for incorrect values to appear. Refer to information at About Latest Weather Observations and please check the disclaimer before using these data.